sensor_id;sensor_type;location;lat;lon;timestamp;pressure;altitude;pressure_sealevel;temperature;humidity
48077;BME280;33854;57.708;12.008;2023-02-15T00:01:47;94919.94;;;2.76;100.00
48077;BME280;33854;57.708;12.008;2023-02-15T00:04:15;94919.94;;;2.76;100.00
48077;BME280;33854;57.708;12.008;2023-02-15T00:06:41;94918.00;;;2.78;100.00
48077;BME280;33854;57.708;12.008;2023-02-15T00:09:06;94917.34;;;2.76;100.00
48077;BME280;33854;57.708;12.008;2023-02-15T00:11:32;94921.88;;;2.74;100.00
48077;BME280;33854;57.708;12.008;2023-02-15T00:16:44;94931.69;;;2.70;100.00
48077;BME280;33854;57.708;12.008;2023-02-15T00:19:11;94930.53;;;2.73;100.00
48077;BME280;33854;57.708;12.008;2023-02-15T00:21:39;94931.69;;;2.70;100.00
48077;BME280;33854;57.708;12.008;2023-02-15T00:24:07;94930.88;;;2.70;100.00
48077;BME280;33854;57.708;12.008;2023-02-15T00:26:33;94922.19;;;2.71;100.00
48077;BME280;33854;57.708;12.008;2023-02-15T00:28:59;94927.66;;;2.76;100.00
48077;BME280;33854;57.708;12.008;2023-02-15T00:31:27;94926.19;;;2.73;100.00
48077;BME280;33854;57.708;12.008;2023-02-15T00:33:52;94922.19;;;2.71;100.00
48077;BME280;33854;57.708;12.008;2023-02-15T00:36:18;94917.34;;;2.76;100.00
48077;BME280;33854;57.708;12.008;2023-02-15T00:38:43;94911.25;;;2.77;100.00
48077;BME280;33854;57.708;12.008;2023-02-15T00:41:09;94904.47;;;2.76;100.00
48077;BME280;33854;57.708;12.008;2023-02-15T00:43:35;94903.38;;;2.70;100.00
48077;BME280;33854;57.708;12.008;2023-02-15T00:46:03;94907.25;;;2.74;100.00
48077;BME280;33854;57.708;12.008;2023-02-15T00:48:29;94920.25;;;2.73;100.00
48077;BME280;33854;57.708;12.008;2023-02-15T00:50:56;94929.09;;;2.70;100.00
48077;BME280;33854;57.708;12.008;2023-02-15T00:53:22;94924.13;;;2.69;100.00
48077;BME280;33854;57.708;12.008;2023-02-15T00:55:48;94942.16;;;2.69;100.00
48077;BME280;33854;57.708;12.008;2023-02-15T00:58:14;94927.34;;;2.71;100.00
48077;BME280;33854;57.708;12.008;2023-02-15T01:00:43;94916.88;;;2.64;100.00
48077;BME280;33854;57.708;12.008;2023-02-15T01:03:09;94941.34;;;2.68;100.00
48077;BME280;33854;57.708;12.008;2023-02-15T01:05:35;94930.22;;;2.68;100.00
48077;BME280;33854;57.708;12.008;2023-02-15T01:08:01;94903.38;;;2.70;100.00
48077;BME280;33854;57.708;12.008;2023-02-15T01:10:27;94895.50;;;2.72;100.00
48077;BME280;33854;57.708;12.008;2023-02-15T01:12:53;94900.16;;;2.68;100.00
48077;BME280;33854;57.708;12.008;2023-02-15T01:15:19;94889.09;;;2.60;100.00
48077;BME280;33854;57.708;12.008;2023-02-15T01:17:44;94908.53;;;2.62;100.00
48077;BME280;33854;57.708;12.008;2023-02-15T01:20:17;94912.06;;;2.61;100.00
48077;BME280;33854;57.708;12.008;2023-02-15T01:22:42;94908.38;;;2.56;100.00
48077;BME280;33854;57.708;12.008;2023-02-15T01:25:07;94912.06;;;2.61;100.00
48077;BME280;33854;57.708;12.008;2023-02-15T01:27:33;94903.38;;;2.62;100.00
48077;BME280;33854;57.708;12.008;2023-02-15T01:29:58;94925.09;;;2.60;100.00
48077;BME280;33854;57.708;12.008;2023-02-15T01:32:24;94930.56;;;2.65;100.00
48077;BME280;33854;57.708;12.008;2023-02-15T01:34:49;94919.00;;;2.69;100.00
48077;BME280;33854;57.708;12.008;2023-02-15T01:37:14;94926.53;;;2.70;100.00
48077;BME280;33854;57.708;12.008;2023-02-15T01:39:40;94921.72;;;2.67;100.00
48077;BME280;33854;57.708;12.008;2023-02-15T01:42:10;94917.69;;;2.65;100.00
48077;BME280;33854;57.708;12.008;2023-02-15T01:50:00;94904.19;;;2.63;100.00
48077;BME280;33854;57.708;12.008;2023-02-15T01:52:27;94902.25;;;2.65;100.00
48077;BME280;33854;57.708;12.008;2023-02-15T01:54:53;94876.03;;;2.61;100.00
48077;BME280;33854;57.708;12.008;2023-02-15T01:57:22;94860.81;;;2.52;100.00
48077;BME280;33854;57.708;12.008;2023-02-15T01:59:53;94859.84;;;2.61;100.00
48077;BME280;33854;57.708;12.008;2023-02-15T02:02:20;94851.94;;;2.62;100.00
48077;BME280;33854;57.708;12.008;2023-02-15T02:04:58;94851.94;;;2.62;100.00
48077;BME280;33854;57.708;12.008;2023-02-15T02:07:27;94881.03;;;2.63;100.00
48077;BME280;33854;57.708;12.008;2023-02-15T02:09:54;94860.13;;;2.66;100.00
48077;BME280;33854;57.708;12.008;2023-02-15T02:12:21;94846.47;;;2.65;100.00
48077;BME280;33854;57.708;12.008;2023-02-15T02:14:48;94848.88;;;2.67;100.00
48077;BME280;33854;57.708;12.008;2023-02-15T02:34:21;94886.34;;;2.61;100.00
48077;BME280;33854;57.708;12.008;2023-02-15T02:37:20;94885.56;;;2.61;100.00
48077;BME280;33854;57.708;12.008;2023-02-15T02:42:46;94886.81;;;2.65;100.00
48077;BME280;33854;57.708;12.008;2023-02-15T02:45:20;94876.72;;;2.63;100.00
48077;BME280;33854;57.708;12.008;2023-02-15T02:48:19;94864.66;;;2.64;100.00
48077;BME280;33854;57.708;12.008;2023-02-15T02:50:46;94880.09;;;2.64;100.00
48077;BME280;33854;57.708;12.008;2023-02-15T02:53:11;94864.00;;;2.62;100.00
48077;BME280;33854;57.708;12.008;2023-02-15T02:58:21;94848.41;;;2.63;100.00
48077;BME280;33854;57.708;12.008;2023-02-15T03:03:37;94844.06;;;2.56;100.00
48077;BME280;33854;57.708;12.008;2023-02-15T03:06:09;94835.38;;;2.57;100.00
48077;BME280;33854;57.708;12.008;2023-02-15T03:08:40;94828.00;;;2.54;100.00
48077;BME280;33854;57.708;12.008;2023-02-15T03:11:06;94809.03;;;2.55;100.00
48077;BME280;33854;57.708;12.008;2023-02-15T03:13:32;94795.19;;;2.56;100.00
48077;BME280;33854;57.708;12.008;2023-02-15T03:16:00;94797.47;;;2.51;100.00
48077;BME280;33854;57.708;12.008;2023-02-15T03:18:48;94781.22;;;2.50;100.00
48077;BME280;33854;57.708;12.008;2023-02-15T03:21:21;94776.72;;;2.52;100.00
48077;BME280;33854;57.708;12.008;2023-02-15T03:23:59;94794.88;;;2.51;100.00
48077;BME280;33854;57.708;12.008;2023-02-15T03:26:26;94799.06;;;2.52;100.00
48077;BME280;33854;57.708;12.008;2023-02-15T03:28:55;94792.50;;;2.49;100.00
48077;BME280;33854;57.708;12.008;2023-02-15T03:31:23;94791.69;;;2.49;100.00
48077;BME280;33854;57.708;12.008;2023-02-15T03:33:59;94789.75;;;2.51;100.00
48077;BME280;33854;57.708;12.008;2023-02-15T03:39:45;94778.81;;;2.49;100.00
48077;BME280;33854;57.708;12.008;2023-02-15T03:42:32;94772.06;;;2.48;100.00
48077;BME280;33854;57.708;12.008;2023-02-15T03:45:09;94777.53;;;2.45;100.00
48077;BME280;33854;57.708;12.008;2023-02-15T03:47:39;94770.81;;;2.44;100.00
48077;BME280;33854;57.708;12.008;2023-02-15T03:50:18;94775.16;;;2.43;100.00
48077;BME280;33854;57.708;12.008;2023-02-15T03:53:06;94762.44;;;2.42;100.00
48077;BME280;33854;57.708;12.008;2023-02-15T03:55:34;94756.63;;;2.48;100.00
48077;BME280;33854;57.708;12.008;2023-02-15T03:58:00;94764.53;;;2.46;100.00
48077;BME280;33854;57.708;12.008;2023-02-15T04:01:11;94768.25;;;2.44;100.00
48077;BME280;33854;57.708;12.008;2023-02-15T04:03:57;94760.53;;;2.44;100.00
48077;BME280;33854;57.708;12.008;2023-02-15T04:06:24;94768.25;;;2.44;100.00
48077;BME280;33854;57.708;12.008;2023-02-15T04:08:49;94766.31;;;2.38;100.00
48077;BME280;33854;57.708;12.008;2023-02-15T04:11:34;94758.59;;;2.38;100.00
48077;BME280;33854;57.708;12.008;2023-02-15T04:13:59;94744.13;;;2.37;100.00
48077;BME280;33854;57.708;12.008;2023-02-15T04:16:44;94735.91;;;2.41;100.00
48077;BME280;33854;57.708;12.008;2023-02-15T04:19:10;94731.75;;;2.40;100.00
48077;BME280;33854;57.708;12.008;2023-02-15T04:21:54;94720.66;;;2.40;100.00
48077;BME280;33854;57.708;12.008;2023-02-15T04:24:38;94720.03;;;2.38;100.00
48077;BME280;33854;57.708;12.008;2023-02-15T04:27:21;94694.31;;;2.38;100.00
48077;BME280;33854;57.708;12.008;2023-02-15T04:29:47;94703.78;;;2.37;100.00
48077;BME280;33854;57.708;12.008;2023-02-15T04:32:15;94697.22;;;2.35;100.00
48077;BME280;33854;57.708;12.008;2023-02-15T04:34:40;94696.94;;;2.29;100.00
48077;BME280;33854;57.708;12.008;2023-02-15T04:37:06;94683.25;;;2.29;100.00
48077;BME280;33854;57.708;12.008;2023-02-15T04:39:31;94673.91;;;2.36;100.00
48077;BME280;33854;57.708;12.008;2023-02-15T04:41:57;94685.03;;;2.28;100.00
48077;BME280;33854;57.708;12.008;2023-02-15T04:44:23;94676.34;;;2.29;100.00
48077;BME280;33854;57.708;12.008;2023-02-15T04:46:48;94670.56;;;2.27;100.00
48077;BME280;33854;57.708;12.008;2023-02-15T04:49:13;94665.41;;;2.27;100.00
48077;BME280;33854;57.708;12.008;2023-02-15T04:51:39;94639.06;;;2.25;100.00
48077;BME280;33854;57.708;12.008;2023-02-15T04:54:04;94644.84;;;2.27;100.00
48077;BME280;33854;57.708;12.008;2023-02-15T04:56:30;94646.59;;;2.27;100.00
48077;BME280;33854;57.708;12.008;2023-02-15T04:58:56;94637.47;;;2.24;100.00
48077;BME280;33854;57.708;12.008;2023-02-15T05:01:22;94622.84;;;2.25;100.00
48077;BME280;33854;57.708;12.008;2023-02-15T05:03:47;94608.56;;;2.22;100.00
48077;BME280;33854;57.708;12.008;2023-02-15T05:06:13;94596.50;;;2.23;100.00
48077;BME280;33854;57.708;12.008;2023-02-15T05:08:38;94580.63;;;2.19;100.00
48077;BME280;33854;57.708;12.008;2023-02-15T05:11:03;94571.94;;;2.20;100.00
48077;BME280;33854;57.708;12.008;2023-02-15T05:13:29;94551.53;;;2.19;100.00
48077;BME280;33854;57.708;12.008;2023-02-15T05:15:54;94535.94;;;2.20;100.00
48077;BME280;33854;57.708;12.008;2023-02-15T05:18:21;94525.69;;;2.12;100.00
48077;BME280;33854;57.708;12.008;2023-02-15T05:20:46;94524.25;;;2.18;100.00
48077;BME280;33854;57.708;12.008;2023-02-15T05:23:12;94492.78;;;2.08;100.00
48077;BME280;33854;57.708;12.008;2023-02-15T05:25:38;94508.97;;;2.16;100.00
48077;BME280;33854;57.708;12.008;2023-02-15T05:28:24;94480.00;;;2.22;100.00
48077;BME280;33854;57.708;12.008;2023-02-15T05:31:05;94474.59;;;2.17;100.00
48077;BME280;33854;57.708;12.008;2023-02-15T05:33:31;94472.03;;;2.17;100.00
48077;BME280;33854;57.708;12.008;2023-02-15T05:35:57;94479.41;;;2.12;100.00
48077;BME280;33854;57.708;12.008;2023-02-15T05:38:22;94461.44;;;2.12;100.00
48077;BME280;33854;57.708;12.008;2023-02-15T05:40:47;94460.47;;;2.13;100.00
48077;BME280;33854;57.708;12.008;2023-02-15T05:43:13;94462.13;;;2.06;100.00
48077;BME280;33854;57.708;12.008;2023-02-15T05:45:38;94453.97;;;2.03;100.00
48077;BME280;33854;57.708;12.008;2023-02-15T05:48:04;94442.88;;;2.02;100.00
48077;BME280;33854;57.708;12.008;2023-02-15T05:50:30;94447.69;;;2.05;100.00
48077;BME280;33854;57.708;12.008;2023-02-15T05:52:55;94437.41;;;2.05;100.00
48077;BME280;33854;57.708;12.008;2023-02-15T05:55:21;94440.59;;;2.07;100.00
48077;BME280;33854;57.708;12.008;2023-02-15T05:57:48;94410.03;;;1.90;100.00
48077;BME280;33854;57.708;12.008;2023-02-15T06:00:14;94429.56;;;1.99;100.00
48077;BME280;33854;57.708;12.008;2023-02-15T06:02:39;94423.47;;;2.00;100.00
48077;BME280;33854;57.708;12.008;2023-02-15T06:05:05;94440.31;;;2.02;100.00
48077;BME280;33854;57.708;12.008;2023-02-15T06:07:31;94441.25;;;2.01;100.00
48077;BME280;33854;57.708;12.008;2023-02-15T06:09:57;94442.25;;;2.00;100.00
48077;BME280;33854;57.708;12.008;2023-02-15T06:12:22;94442.13;;;1.94;100.00
48077;BME280;33854;57.708;12.008;2023-02-15T06:14:48;94439.38;;;1.95;100.00
48077;BME280;33854;57.708;12.008;2023-02-15T06:17:13;94446.66;;;1.92;100.00
48077;BME280;33854;57.708;12.008;2023-02-15T06:19:39;94439.22;;;1.97;100.00
48077;BME280;33854;57.708;12.008;2023-02-15T06:22:04;94440.09;;;1.89;100.00
48077;BME280;33854;57.708;12.008;2023-02-15T06:24:31;94436.53;;;1.90;100.00
48077;BME280;33854;57.708;12.008;2023-02-15T06:26:56;94416.81;;;1.83;100.00
48077;BME280;33854;57.708;12.008;2023-02-15T06:29:22;94442.66;;;1.89;100.00
48077;BME280;33854;57.708;12.008;2023-02-15T06:31:47;94438.13;;;1.91;100.00
48077;BME280;33854;57.708;12.008;2023-02-15T06:34:13;94431.03;;;1.93;100.00
48077;BME280;33854;57.708;12.008;2023-02-15T06:36:38;94435.91;;;1.88;100.00
48077;BME280;33854;57.708;12.008;2023-02-15T06:39:04;94440.41;;;1.86;100.00
48077;BME280;33854;57.708;12.008;2023-02-15T06:41:30;94429.16;;;1.87;100.00
48077;BME280;33854;57.708;12.008;2023-02-15T06:43:55;94425.63;;;1.88;100.00
48077;BME280;33854;57.708;12.008;2023-02-15T06:46:21;94406.22;;;1.86;100.00
48077;BME280;33854;57.708;12.008;2023-02-15T06:48:46;94413.84;;;1.94;100.00
48077;BME280;33854;57.708;12.008;2023-02-15T06:51:12;94398.22;;;1.81;100.00
48077;BME280;33854;57.708;12.008;2023-02-15T06:53:37;94424.00;;;1.87;100.00
48077;BME280;33854;57.708;12.008;2023-02-15T06:56:05;94434.63;;;1.84;100.00
48077;BME280;33854;57.708;12.008;2023-02-15T06:58:49;94424.88;;;1.80;100.00
48077;BME280;33854;57.708;12.008;2023-02-15T07:01:15;94421.16;;;1.82;100.00
48077;BME280;33854;57.708;12.008;2023-02-15T07:03:41;94432.72;;;1.86;100.00
48077;BME280;33854;57.708;12.008;2023-02-15T07:06:07;94427.25;;;1.81;100.00
48077;BME280;33854;57.708;12.008;2023-02-15T07:08:34;94424.19;;;1.86;100.00
48077;BME280;33854;57.708;12.008;2023-02-15T07:11:00;94434.81;;;1.83;100.00
48077;BME280;33854;57.708;12.008;2023-02-15T07:13:45;94430.63;;;1.82;100.00
48077;BME280;33854;57.708;12.008;2023-02-15T07:16:11;94414.19;;;1.68;100.00
48077;BME280;33854;57.708;12.008;2023-02-15T07:18:38;94398.44;;;1.71;100.00
48077;BME280;33854;57.708;12.008;2023-02-15T07:21:03;94401.41;;;1.83;100.00
48077;BME280;33854;57.708;12.008;2023-02-15T07:23:29;94400.13;;;1.79;100.00
48077;BME280;33854;57.708;12.008;2023-02-15T07:26:00;94402.44;;;1.73;100.00
48077;BME280;33854;57.708;12.008;2023-02-15T07:28:27;94401.63;;;1.73;100.00
48077;BME280;33854;57.708;12.008;2023-02-15T07:30:52;94414.81;;;1.70;100.00
48077;BME280;33854;57.708;12.008;2023-02-15T07:33:18;94394.25;;;1.70;100.00
48077;BME280;33854;57.708;12.008;2023-02-15T07:35:51;94392.84;;;1.67;100.00
48077;BME280;33854;57.708;12.008;2023-02-15T07:38:18;94369.25;;;1.64;100.00
48077;BME280;33854;57.708;12.008;2023-02-15T07:40:44;94378.69;;;1.71;100.00
48077;BME280;33854;57.708;12.008;2023-02-15T07:43:10;94370.81;;;1.73;100.00
48077;BME280;33854;57.708;12.008;2023-02-15T07:45:37;94374.03;;;1.75;100.00
48077;BME280;33854;57.708;12.008;2023-02-15T07:48:03;94356.38;;;1.72;100.00
48077;BME280;33854;57.708;12.008;2023-02-15T07:50:29;94358.59;;;1.75;100.00
48077;BME280;33854;57.708;12.008;2023-02-15T07:52:55;94344.31;;;1.72;100.00
48077;BME280;33854;57.708;12.008;2023-02-15T07:55:20;94358.69;;;1.82;100.00
48077;BME280;33854;57.708;12.008;2023-02-15T07:57:47;94355.97;;;1.83;100.00
48077;BME280;33854;57.708;12.008;2023-02-15T08:00:15;94372.53;;;1.81;100.00
48077;BME280;33854;57.708;12.008;2023-02-15T08:02:42;94373.91;;;1.68;100.00
48077;BME280;33854;57.708;12.008;2023-02-15T08:05:07;94395.34;;;1.76;100.00
48077;BME280;33854;57.708;12.008;2023-02-15T08:07:33;94414.75;;;1.78;100.00
48077;BME280;33854;57.708;12.008;2023-02-15T08:09:59;94402.22;;;1.83;100.00
48077;BME280;33854;57.708;12.008;2023-02-15T08:12:27;94412.78;;;1.88;100.00
48077;BME280;33854;57.708;12.008;2023-02-15T08:14:53;94418.88;;;1.87;100.00
48077;BME280;33854;57.708;12.008;2023-02-15T08:17:18;94441.19;;;1.87;100.00
48077;BME280;33854;57.708;12.008;2023-02-15T08:19:44;94449.09;;;1.85;100.00
48077;BME280;33854;57.708;12.008;2023-02-15T08:22:12;94449.41;;;1.82;100.00
48077;BME280;33854;57.708;12.008;2023-02-15T08:24:37;94443.47;;;1.82;100.00
48077;BME280;33854;57.708;12.008;2023-02-15T08:27:05;94442.00;;;1.87;100.00
48077;BME280;33854;57.708;12.008;2023-02-15T08:29:31;94443.31;;;1.83;100.00
48077;BME280;33854;57.708;12.008;2023-02-15T08:32:03;94457.03;;;1.98;100.00
48077;BME280;33854;57.708;12.008;2023-02-15T08:34:31;94463.44;;;2.02;100.00
48077;BME280;33854;57.708;12.008;2023-02-15T08:36:56;94458.91;;;2.04;100.00
48077;BME280;33854;57.708;12.008;2023-02-15T08:39:22;94445.78;;;1.99;100.00
48077;BME280;33854;57.708;12.008;2023-02-15T08:41:48;94440.78;;;2.06;100.00
48077;BME280;33854;57.708;12.008;2023-02-15T08:44:15;94431.16;;;2.00;100.00
48077;BME280;33854;57.708;12.008;2023-02-15T08:46:43;94443.00;;;2.09;100.00
48077;BME280;33854;57.708;12.008;2023-02-15T08:49:12;94408.84;;;2.00;100.00
48077;BME280;33854;57.708;12.008;2023-02-15T08:51:39;94408.25;;;2.13;100.00
48077;BME280;33854;57.708;12.008;2023-02-15T08:54:08;94405.66;;;2.21;100.00
48077;BME280;33854;57.708;12.008;2023-02-15T08:56:39;94418.84;;;2.18;100.00
48077;BME280;33854;57.708;12.008;2023-02-15T08:59:05;94412.81;;;2.25;100.00
48077;BME280;33854;57.708;12.008;2023-02-15T09:01:33;94422.94;;;2.27;100.00
48077;BME280;33854;57.708;12.008;2023-02-15T09:04:01;94435.69;;;2.20;100.00
48077;BME280;33854;57.708;12.008;2023-02-15T09:06:28;94429.06;;;2.26;100.00
48077;BME280;33854;57.708;12.008;2023-02-15T09:08:54;94426.56;;;2.33;100.00
48077;BME280;33854;57.708;12.008;2023-02-15T09:11:22;94435.16;;;2.25;100.00
48077;BME280;33854;57.708;12.008;2023-02-15T09:13:55;94450.13;;;2.21;100.00
48077;BME280;33854;57.708;12.008;2023-02-15T09:16:22;94452.53;;;2.23;100.00
48077;BME280;33854;57.708;12.008;2023-02-15T09:18:48;94469.53;;;2.24;100.00
48077;BME280;33854;57.708;12.008;2023-02-15T09:21:16;94458.75;;;2.28;100.00
48077;BME280;33854;57.708;12.008;2023-02-15T09:23:43;94470.19;;;2.26;100.00
48077;BME280;33854;57.708;12.008;2023-02-15T09:26:11;94466.63;;;2.27;100.00
48077;BME280;33854;57.708;12.008;2023-02-15T09:28:37;94466.19;;;2.23;100.00
48077;BME280;33854;57.708;12.008;2023-02-15T09:31:13;94486.53;;;2.33;100.00
48077;BME280;33854;57.708;12.008;2023-02-15T09:33:40;94473.50;;;2.35;100.00
48077;BME280;33854;57.708;12.008;2023-02-15T09:36:17;94479.94;;;2.30;100.00
48077;BME280;33854;57.708;12.008;2023-02-15T09:38:46;94498.63;;;2.24;100.00
48077;BME280;33854;57.708;12.008;2023-02-15T09:49:56;94443.88;;;2.39;100.00
48077;BME280;33854;57.708;12.008;2023-02-15T09:52:39;94450.03;;;2.38;100.00
48077;BME280;33854;57.708;12.008;2023-02-15T09:55:22;94448.75;;;2.34;100.00
48077;BME280;33854;57.708;12.008;2023-02-15T09:58:12;94450.44;;;2.26;100.00
48077;BME280;33854;57.708;12.008;2023-02-15T10:17:16;94449.72;;;2.33;100.00
48077;BME280;33854;57.708;12.008;2023-02-15T10:25:19;94412.69;;;2.42;100.00
48077;BME280;33854;57.708;12.008;2023-02-15T10:27:48;94415.94;;;2.36;100.00
48077;BME280;33854;57.708;12.008;2023-02-15T10:30:29;94430.75;;;2.34;100.00
48077;BME280;33854;57.708;12.008;2023-02-15T10:33:02;94424.00;;;2.33;100.00
48077;BME280;33854;57.708;12.008;2023-02-15T10:35:51;94424.47;;;2.36;100.00
48077;BME280;33854;57.708;12.008;2023-02-15T10:38:40;94427.56;;;2.32;100.00
48077;BME280;33854;57.708;12.008;2023-02-15T10:47:19;94402.84;;;2.45;100.00
48077;BME280;33854;57.708;12.008;2023-02-15T10:55:50;94404.66;;;2.59;100.00
48077;BME280;33854;57.708;12.008;2023-02-15T11:01:34;94399.59;;;2.51;100.00
48077;BME280;33854;57.708;12.008;2023-02-15T11:07:06;94405.69;;;2.50;100.00
48077;BME280;33854;57.708;12.008;2023-02-15T11:09:40;94397.72;;;2.45;100.00
48077;BME280;33854;57.708;12.008;2023-02-15T11:12:11;94404.19;;;2.56;100.00
48077;BME280;33854;57.708;12.008;2023-02-15T11:17:16;94417.31;;;2.46;100.00
48077;BME280;33854;57.708;12.008;2023-02-15T11:22:32;94394.72;;;2.56;100.00
48077;BME280;33854;57.708;12.008;2023-02-15T11:24:59;94420.69;;;2.47;100.00
48077;BME280;33854;57.708;12.008;2023-02-15T11:27:29;94410.41;;;2.47;100.00
48077;BME280;33854;57.708;12.008;2023-02-15T11:30:09;94390.09;;;2.52;100.00
48077;BME280;33854;57.708;12.008;2023-02-15T11:32:43;94379.28;;;2.56;100.00
48077;BME280;33854;57.708;12.008;2023-02-15T11:37:43;94372.63;;;2.62;100.00
48077;BME280;33854;57.708;12.008;2023-02-15T11:42:55;94359.50;;;2.57;100.00
48077;BME280;33854;57.708;12.008;2023-02-15T11:45:32;94351.97;;;2.55;100.00
48077;BME280;33854;57.708;12.008;2023-02-15T11:48:00;94358.97;;;2.61;100.00
48077;BME280;33854;57.708;12.008;2023-02-15T11:50:31;94317.09;;;2.53;100.00
48077;BME280;33854;57.708;12.008;2023-02-15T11:53:00;94324.56;;;2.62;100.00
48077;BME280;33854;57.708;12.008;2023-02-15T11:55:27;94314.53;;;2.67;100.00
48077;BME280;33854;57.708;12.008;2023-02-15T12:00:50;94301.75;;;2.59;100.00
48077;BME280;33854;57.708;12.008;2023-02-15T12:03:22;94268.41;;;2.66;100.00
48077;BME280;33854;57.708;12.008;2023-02-15T12:05:55;94258.28;;;2.64;100.00
48077;BME280;33854;57.708;12.008;2023-02-15T12:08:22;94240.56;;;2.55;100.00
48077;BME280;33854;57.708;12.008;2023-02-15T12:11:09;94232.75;;;2.63;100.00
48077;BME280;33854;57.708;12.008;2023-02-15T12:13:54;94207.75;;;2.57;100.00
48077;BME280;33854;57.708;12.008;2023-02-15T12:16:20;94179.47;;;2.57;100.00
48077;BME280;33854;57.708;12.008;2023-02-15T12:18:46;94170.31;;;2.69;100.00
48077;BME280;33854;57.708;12.008;2023-02-15T12:21:25;94141.19;;;2.68;100.00
48077;BME280;33854;57.708;12.008;2023-02-15T12:23:54;94134.66;;;2.66;100.00
48077;BME280;33854;57.708;12.008;2023-02-15T12:26:25;94142.00;;;2.69;100.00
48077;BME280;33854;57.708;12.008;2023-02-15T12:28:53;94104.22;;;2.69;100.00
48077;BME280;33854;57.708;12.008;2023-02-15T12:31:24;94106.44;;;2.72;100.00
48077;BME280;33854;57.708;12.008;2023-02-15T12:33:53;94082.34;;;2.80;100.00
48077;BME280;33854;57.708;12.008;2023-02-15T12:36:22;94077.69;;;2.69;100.00
48077;BME280;33854;57.708;12.008;2023-02-15T12:41:45;94066.78;;;2.67;100.00
48077;BME280;33854;57.708;12.008;2023-02-15T12:44:19;94048.97;;;2.65;100.00
48077;BME280;33854;57.708;12.008;2023-02-15T12:49:40;94057.78;;;2.77;100.00
48077;BME280;33854;57.708;12.008;2023-02-15T12:52:24;94044.72;;;2.79;100.00
48077;BME280;33854;57.708;12.008;2023-02-15T12:54:51;94053.59;;;2.76;100.00
48077;BME280;33854;57.708;12.008;2023-02-15T12:57:30;94062.72;;;2.79;100.00
48077;BME280;33854;57.708;12.008;2023-02-15T12:59:59;94082.09;;;2.75;100.00
48077;BME280;33854;57.708;12.008;2023-02-15T13:05:17;94075.84;;;2.84;100.00
48077;BME280;33854;57.708;12.008;2023-02-15T13:07:50;94065.56;;;2.84;100.00
48077;BME280;33854;57.708;12.008;2023-02-15T13:10:29;94075.97;;;2.76;100.00
48077;BME280;33854;57.708;12.008;2023-02-15T13:12:56;94108.00;;;2.73;100.00
48077;BME280;33854;57.708;12.008;2023-02-15T13:15:25;94107.38;;;2.71;100.00
48077;BME280;33854;57.708;12.008;2023-02-15T13:17:51;94097.72;;;2.73;100.00
48077;BME280;33854;57.708;12.008;2023-02-15T13:20:21;94090.00;;;2.73;100.00
48077;BME280;33854;57.708;12.008;2023-02-15T13:22:55;94067.94;;;2.64;100.00
48077;BME280;33854;57.708;12.008;2023-02-15T13:25:24;94069.84;;;2.77;100.00
48077;BME280;33854;57.708;12.008;2023-02-15T13:28:04;94072.41;;;2.77;100.00
48077;BME280;33854;57.708;12.008;2023-02-15T13:30:33;94065.25;;;2.72;100.00
48077;BME280;33854;57.708;12.008;2023-02-15T13:33:06;94013.25;;;2.56;100.00
48077;BME280;33854;57.708;12.008;2023-02-15T13:35:44;94050.06;;;2.77;100.00
48077;BME280;33854;57.708;12.008;2023-02-15T13:38:36;94040.00;;;2.82;100.00
48077;BME280;33854;57.708;12.008;2023-02-15T13:41:11;94047.56;;;2.84;100.00
48077;BME280;33854;57.708;12.008;2023-02-15T14:08:09;94002.81;;;2.85;100.00
48077;BME280;33854;57.708;12.008;2023-02-15T14:11:06;93992.75;;;2.90;100.00
48077;BME280;33854;57.708;12.008;2023-02-15T14:16:27;94004.88;;;2.96;100.00
48077;BME280;33854;57.708;12.008;2023-02-15T14:21:48;93998.97;;;3.02;100.00
48077;BME280;33854;57.708;12.008;2023-02-15T14:24:40;94003.75;;;3.05;100.00
48077;BME280;33854;57.708;12.008;2023-02-15T14:27:32;93992.28;;;3.08;100.00
48077;BME280;33854;57.708;12.008;2023-02-15T14:30:34;94016.81;;;3.04;100.00
48077;BME280;33854;57.708;12.008;2023-02-15T14:36:23;94006.53;;;3.04;100.00
48077;BME280;33854;57.708;12.008;2023-02-15T14:42:02;93993.47;;;3.05;100.00
48077;BME280;33854;57.708;12.008;2023-02-15T14:44:36;94011.84;;;3.02;100.00
48077;BME280;33854;57.708;12.008;2023-02-15T14:47:08;94027.28;;;3.02;100.00
48077;BME280;33854;57.708;12.008;2023-02-15T14:49:39;94010.28;;;3.01;100.00
48077;BME280;33854;57.708;12.008;2023-02-15T14:52:09;94010.44;;;3.00;100.00
48077;BME280;33854;57.708;12.008;2023-02-15T14:59:52;93956.34;;;2.93;100.00
48077;BME280;33854;57.708;12.008;2023-02-15T15:07:57;93984.28;;;2.96;100.00
48077;BME280;33854;57.708;12.008;2023-02-15T15:10:32;93984.44;;;2.88;100.00
48077;BME280;33854;57.708;12.008;2023-02-15T15:15:56;93972.16;;;2.90;100.00
48077;BME280;33854;57.708;12.008;2023-02-15T15:18:45;93953.00;;;2.93;100.00
48077;BME280;33854;57.708;12.008;2023-02-15T15:21:11;93968.38;;;2.86;100.00
48077;BME280;33854;57.708;12.008;2023-02-15T15:23:56;93962.06;;;2.88;100.00
48077;BME280;33854;57.708;12.008;2023-02-15T15:26:30;93959.88;;;2.85;100.00
48077;BME280;33854;57.708;12.008;2023-02-15T15:28:59;93959.88;;;2.85;100.00
48077;BME280;33854;57.708;12.008;2023-02-15T15:31:45;93951.91;;;2.80;100.00
48077;BME280;33854;57.708;12.008;2023-02-15T15:45:44;93934.94;;;2.86;100.00
48077;BME280;33854;57.708;12.008;2023-02-15T15:48:31;93924.66;;;2.86;100.00
48077;BME280;33854;57.708;12.008;2023-02-15T15:51:25;93921.66;;;2.82;100.00
48077;BME280;33854;57.708;12.008;2023-02-15T15:53:53;93902.66;;;2.83;100.00
48077;BME280;33854;57.708;12.008;2023-02-15T15:56:31;93905.78;;;2.79;100.00